sensor_id;sensor_type;location;lat;lon;timestamp;P1;durP1;ratioP1;P2;durP2;ratioP2
66603;SDS011;53460;39.612;8.822;2023-08-08T00:00:16;8.77;;;2.42;;
66603;SDS011;53460;39.612;8.822;2023-08-08T00:02:41;12.45;;;2.58;;
66603;SDS011;53460;39.612;8.822;2023-08-08T00:05:07;8.10;;;2.45;;
66603;SDS011;53460;39.612;8.822;2023-08-08T00:07:33;9.90;;;2.15;;
66603;SDS011;53460;39.612;8.822;2023-08-08T00:09:58;11.40;;;3.10;;
66603;SDS011;53460;39.612;8.822;2023-08-08T00:12:23;8.88;;;2.42;;
66603;SDS011;53460;39.612;8.822;2023-08-08T00:14:49;7.28;;;2.40;;
66603;SDS011;53460;39.612;8.822;2023-08-08T00:17:15;15.25;;;2.80;;
66603;SDS011;53460;39.612;8.822;2023-08-08T00:19:40;12.70;;;2.55;;
66603;SDS011;53460;39.612;8.822;2023-08-08T00:22:05;8.68;;;2.45;;
66603;SDS011;53460;39.612;8.822;2023-08-08T00:24:31;10.88;;;2.33;;
66603;SDS011;53460;39.612;8.822;2023-08-08T00:26:57;13.52;;;3.10;;
66603;SDS011;53460;39.612;8.822;2023-08-08T00:29:22;15.98;;;2.78;;
66603;SDS011;53460;39.612;8.822;2023-08-08T00:31:48;9.93;;;2.17;;
66603;SDS011;53460;39.612;8.822;2023-08-08T00:34:14;8.82;;;2.42;;
66603;SDS011;53460;39.612;8.822;2023-08-08T00:36:39;8.25;;;2.15;;
66603;SDS011;53460;39.612;8.822;2023-08-08T00:39:05;6.00;;;2.13;;
66603;SDS011;53460;39.612;8.822;2023-08-08T00:41:30;15.15;;;2.88;;
66603;SDS011;53460;39.612;8.822;2023-08-08T00:43:55;8.38;;;3.05;;
66603;SDS011;53460;39.612;8.822;2023-08-08T00:46:22;16.35;;;3.90;;
66603;SDS011;53460;39.612;8.822;2023-08-08T00:48:49;12.35;;;2.83;;
66603;SDS011;53460;39.612;8.822;2023-08-08T00:51:15;11.57;;;2.80;;
66603;SDS011;53460;39.612;8.822;2023-08-08T00:53:42;9.68;;;2.45;;
66603;SDS011;53460;39.612;8.822;2023-08-08T00:56:09;11.20;;;2.67;;
66603;SDS011;53460;39.612;8.822;2023-08-08T00:58:34;9.48;;;2.65;;
66603;SDS011;53460;39.612;8.822;2023-08-08T01:01:00;10.20;;;2.75;;
66603;SDS011;53460;39.612;8.822;2023-08-08T01:03:26;10.60;;;2.80;;
66603;SDS011;53460;39.612;8.822;2023-08-08T01:06:02;9.63;;;3.47;;
66603;SDS011;53460;39.612;8.822;2023-08-08T01:08:33;11.77;;;2.55;;
66603;SDS011;53460;39.612;8.822;2023-08-08T01:11:00;12.23;;;2.43;;
66603;SDS011;53460;39.612;8.822;2023-08-08T01:13:26;10.68;;;4.40;;
66603;SDS011;53460;39.612;8.822;2023-08-08T01:15:53;10.75;;;2.65;;
66603;SDS011;53460;39.612;8.822;2023-08-08T01:18:19;10.90;;;2.63;;
66603;SDS011;53460;39.612;8.822;2023-08-08T01:20:45;12.65;;;2.67;;
66603;SDS011;53460;39.612;8.822;2023-08-08T01:23:26;9.52;;;2.63;;
66603;SDS011;53460;39.612;8.822;2023-08-08T01:25:54;10.10;;;2.08;;
66603;SDS011;53460;39.612;8.822;2023-08-08T01:28:21;12.23;;;2.50;;
66603;SDS011;53460;39.612;8.822;2023-08-08T01:30:47;15.20;;;2.90;;
66603;SDS011;53460;39.612;8.822;2023-08-08T01:33:13;12.88;;;2.97;;
66603;SDS011;53460;39.612;8.822;2023-08-08T01:35:38;12.38;;;2.50;;
66603;SDS011;53460;39.612;8.822;2023-08-08T01:38:26;12.18;;;2.40;;
66603;SDS011;53460;39.612;8.822;2023-08-08T01:40:54;8.23;;;2.67;;
66603;SDS011;53460;39.612;8.822;2023-08-08T01:43:20;8.50;;;1.80;;
66603;SDS011;53460;39.612;8.822;2023-08-08T01:45:46;11.55;;;2.45;;
66603;SDS011;53460;39.612;8.822;2023-08-08T01:48:11;10.00;;;1.98;;
66603;SDS011;53460;39.612;8.822;2023-08-08T01:50:37;6.55;;;2.10;;
66603;SDS011;53460;39.612;8.822;2023-08-08T01:53:03;10.95;;;2.50;;
66603;SDS011;53460;39.612;8.822;2023-08-08T01:55:29;9.10;;;2.30;;
66603;SDS011;53460;39.612;8.822;2023-08-08T01:57:54;4.95;;;1.70;;
66603;SDS011;53460;39.612;8.822;2023-08-08T02:00:20;10.40;;;2.00;;
66603;SDS011;53460;39.612;8.822;2023-08-08T02:02:45;9.13;;;2.72;;
66603;SDS011;53460;39.612;8.822;2023-08-08T02:05:10;10.57;;;2.15;;
66603;SDS011;53460;39.612;8.822;2023-08-08T02:07:36;7.82;;;2.13;;
66603;SDS011;53460;39.612;8.822;2023-08-08T02:10:01;8.57;;;2.25;;
66603;SDS011;53460;39.612;8.822;2023-08-08T02:12:29;8.27;;;2.60;;
66603;SDS011;53460;39.612;8.822;2023-08-08T02:14:56;9.05;;;3.30;;
66603;SDS011;53460;39.612;8.822;2023-08-08T02:17:21;7.90;;;2.33;;
66603;SDS011;53460;39.612;8.822;2023-08-08T02:19:46;12.68;;;2.47;;
66603;SDS011;53460;39.612;8.822;2023-08-08T02:22:12;8.63;;;2.20;;
66603;SDS011;53460;39.612;8.822;2023-08-08T02:24:38;9.90;;;2.30;;
66603;SDS011;53460;39.612;8.822;2023-08-08T02:27:03;10.05;;;2.20;;
66603;SDS011;53460;39.612;8.822;2023-08-08T02:29:29;8.57;;;3.08;;
66603;SDS011;53460;39.612;8.822;2023-08-08T02:31:56;6.30;;;1.85;;
66603;SDS011;53460;39.612;8.822;2023-08-08T02:34:24;10.18;;;2.13;;
66603;SDS011;53460;39.612;8.822;2023-08-08T02:36:50;10.05;;;2.28;;
66603;SDS011;53460;39.612;8.822;2023-08-08T02:39:15;5.85;;;1.70;;
66603;SDS011;53460;39.612;8.822;2023-08-08T02:41:41;14.82;;;2.38;;
66603;SDS011;53460;39.612;8.822;2023-08-08T02:44:08;10.07;;;2.53;;
66603;SDS011;53460;39.612;8.822;2023-08-08T02:46:33;9.32;;;2.50;;
66603;SDS011;53460;39.612;8.822;2023-08-08T02:48:59;10.77;;;2.50;;
66603;SDS011;53460;39.612;8.822;2023-08-08T02:51:26;6.75;;;2.05;;
66603;SDS011;53460;39.612;8.822;2023-08-08T02:53:51;9.25;;;2.88;;
66603;SDS011;53460;39.612;8.822;2023-08-08T02:56:17;8.77;;;2.25;;
66603;SDS011;53460;39.612;8.822;2023-08-08T02:58:42;8.15;;;2.17;;
66603;SDS011;53460;39.612;8.822;2023-08-08T03:01:08;11.30;;;2.15;;
66603;SDS011;53460;39.612;8.822;2023-08-08T03:03:34;7.78;;;2.08;;
66603;SDS011;53460;39.612;8.822;2023-08-08T03:06:00;7.43;;;1.92;;
66603;SDS011;53460;39.612;8.822;2023-08-08T03:08:26;5.88;;;2.00;;
66603;SDS011;53460;39.612;8.822;2023-08-08T03:10:53;5.28;;;1.55;;
66603;SDS011;53460;39.612;8.822;2023-08-08T03:13:19;8.32;;;1.70;;
66603;SDS011;53460;39.612;8.822;2023-08-08T03:15:47;8.30;;;1.88;;
66603;SDS011;53460;39.612;8.822;2023-08-08T03:18:12;10.20;;;2.28;;
66603;SDS011;53460;39.612;8.822;2023-08-08T03:20:38;9.43;;;2.17;;
66603;SDS011;53460;39.612;8.822;2023-08-08T03:23:05;10.52;;;2.75;;
66603;SDS011;53460;39.612;8.822;2023-08-08T03:25:31;6.38;;;2.13;;
66603;SDS011;53460;39.612;8.822;2023-08-08T03:27:56;8.15;;;2.10;;
66603;SDS011;53460;39.612;8.822;2023-08-08T03:30:22;9.80;;;2.13;;
66603;SDS011;53460;39.612;8.822;2023-08-08T03:32:48;7.88;;;1.80;;
66603;SDS011;53460;39.612;8.822;2023-08-08T03:35:14;9.40;;;2.00;;
66603;SDS011;53460;39.612;8.822;2023-08-08T03:37:41;7.82;;;2.28;;
66603;SDS011;53460;39.612;8.822;2023-08-08T03:40:07;10.85;;;1.95;;
66603;SDS011;53460;39.612;8.822;2023-08-08T03:42:33;4.28;;;2.17;;
66603;SDS011;53460;39.612;8.822;2023-08-08T03:44:58;7.35;;;2.00;;
66603;SDS011;53460;39.612;8.822;2023-08-08T03:47:24;7.82;;;2.20;;
66603;SDS011;53460;39.612;8.822;2023-08-08T03:49:49;5.80;;;1.95;;
66603;SDS011;53460;39.612;8.822;2023-08-08T03:52:16;9.10;;;2.05;;
66603;SDS011;53460;39.612;8.822;2023-08-08T03:54:42;9.43;;;1.90;;
66603;SDS011;53460;39.612;8.822;2023-08-08T03:57:08;8.43;;;1.95;;
66603;SDS011;53460;39.612;8.822;2023-08-08T03:59:33;5.78;;;1.92;;
66603;SDS011;53460;39.612;8.822;2023-08-08T04:01:59;5.97;;;1.77;;
66603;SDS011;53460;39.612;8.822;2023-08-08T04:04:24;10.70;;;2.20;;
66603;SDS011;53460;39.612;8.822;2023-08-08T04:06:50;6.80;;;2.08;;
66603;SDS011;53460;39.612;8.822;2023-08-08T04:09:16;6.55;;;1.85;;
66603;SDS011;53460;39.612;8.822;2023-08-08T04:11:41;8.95;;;2.65;;
66603;SDS011;53460;39.612;8.822;2023-08-08T04:14:07;10.10;;;1.85;;
66603;SDS011;53460;39.612;8.822;2023-08-08T04:16:32;13.23;;;2.25;;
66603;SDS011;53460;39.612;8.822;2023-08-08T04:18:58;8.20;;;2.15;;
66603;SDS011;53460;39.612;8.822;2023-08-08T04:21:24;9.43;;;1.90;;
66603;SDS011;53460;39.612;8.822;2023-08-08T04:23:51;12.05;;;2.80;;
66603;SDS011;53460;39.612;8.822;2023-08-08T04:26:16;5.35;;;1.95;;
66603;SDS011;53460;39.612;8.822;2023-08-08T04:28:42;29.63;;;3.70;;
66603;SDS011;53460;39.612;8.822;2023-08-08T04:31:07;13.68;;;2.20;;
66603;SDS011;53460;39.612;8.822;2023-08-08T04:33:33;5.10;;;2.30;;
66603;SDS011;53460;39.612;8.822;2023-08-08T04:35:58;12.70;;;2.63;;
66603;SDS011;53460;39.612;8.822;2023-08-08T04:38:24;8.35;;;2.00;;
66603;SDS011;53460;39.612;8.822;2023-08-08T04:40:49;5.28;;;1.98;;
66603;SDS011;53460;39.612;8.822;2023-08-08T04:43:15;10.85;;;2.53;;
66603;SDS011;53460;39.612;8.822;2023-08-08T04:45:40;6.13;;;1.80;;
66603;SDS011;53460;39.612;8.822;2023-08-08T04:48:06;9.10;;;1.85;;
66603;SDS011;53460;39.612;8.822;2023-08-08T04:50:31;7.53;;;2.28;;
66603;SDS011;53460;39.612;8.822;2023-08-08T04:52:57;8.13;;;2.63;;
66603;SDS011;53460;39.612;8.822;2023-08-08T04:55:22;9.10;;;2.63;;
66603;SDS011;53460;39.612;8.822;2023-08-08T04:57:48;8.65;;;2.50;;
66603;SDS011;53460;39.612;8.822;2023-08-08T05:00:13;6.40;;;2.00;;
66603;SDS011;53460;39.612;8.822;2023-08-08T05:02:39;7.65;;;2.00;;
66603;SDS011;53460;39.612;8.822;2023-08-08T05:05:06;10.93;;;2.45;;
66603;SDS011;53460;39.612;8.822;2023-08-08T05:07:32;12.93;;;2.25;;
66603;SDS011;53460;39.612;8.822;2023-08-08T05:09:58;22.60;;;2.60;;
66603;SDS011;53460;39.612;8.822;2023-08-08T05:12:23;24.50;;;2.90;;
66603;SDS011;53460;39.612;8.822;2023-08-08T05:14:52;14.38;;;2.70;;
66603;SDS011;53460;39.612;8.822;2023-08-08T05:17:17;11.43;;;2.00;;
66603;SDS011;53460;39.612;8.822;2023-08-08T05:19:42;5.10;;;1.75;;
66603;SDS011;53460;39.612;8.822;2023-08-08T05:22:08;10.13;;;2.55;;
66603;SDS011;53460;39.612;8.822;2023-08-08T05:24:33;6.95;;;1.88;;
66603;SDS011;53460;39.612;8.822;2023-08-08T05:27:01;23.60;;;2.60;;
66603;SDS011;53460;39.612;8.822;2023-08-08T05:29:26;12.70;;;1.90;;
66603;SDS011;53460;39.612;8.822;2023-08-08T05:31:51;13.38;;;2.40;;
66603;SDS011;53460;39.612;8.822;2023-08-08T05:34:17;11.35;;;2.22;;
66603;SDS011;53460;39.612;8.822;2023-08-08T05:36:42;7.60;;;2.00;;
66603;SDS011;53460;39.612;8.822;2023-08-08T05:39:08;8.93;;;2.00;;
66603;SDS011;53460;39.612;8.822;2023-08-08T05:41:35;8.90;;;1.92;;
66603;SDS011;53460;39.612;8.822;2023-08-08T05:44:00;8.07;;;2.53;;
66603;SDS011;53460;39.612;8.822;2023-08-08T05:46:25;7.35;;;2.55;;
66603;SDS011;53460;39.612;8.822;2023-08-08T05:48:51;11.02;;;2.20;;
66603;SDS011;53460;39.612;8.822;2023-08-08T05:51:16;8.30;;;1.77;;
66603;SDS011;53460;39.612;8.822;2023-08-08T05:53:42;11.02;;;2.92;;
66603;SDS011;53460;39.612;8.822;2023-08-08T05:56:07;10.95;;;2.13;;
66603;SDS011;53460;39.612;8.822;2023-08-08T05:58:34;6.82;;;2.13;;
66603;SDS011;53460;39.612;8.822;2023-08-08T06:00:59;9.02;;;2.38;;
66603;SDS011;53460;39.612;8.822;2023-08-08T06:03:25;10.27;;;2.40;;
66603;SDS011;53460;39.612;8.822;2023-08-08T06:05:51;9.02;;;2.28;;
66603;SDS011;53460;39.612;8.822;2023-08-08T06:08:16;10.13;;;2.53;;
66603;SDS011;53460;39.612;8.822;2023-08-08T06:10:42;11.20;;;2.17;;
66603;SDS011;53460;39.612;8.822;2023-08-08T06:13:07;7.05;;;1.77;;
66603;SDS011;53460;39.612;8.822;2023-08-08T06:15:33;7.82;;;1.95;;
66603;SDS011;53460;39.612;8.822;2023-08-08T06:17:59;7.93;;;2.00;;
66603;SDS011;53460;39.612;8.822;2023-08-08T06:20:24;6.05;;;2.03;;
66603;SDS011;53460;39.612;8.822;2023-08-08T06:22:51;8.30;;;2.58;;
66603;SDS011;53460;39.612;8.822;2023-08-08T06:25:17;7.13;;;2.50;;
66603;SDS011;53460;39.612;8.822;2023-08-08T06:27:42;8.95;;;1.98;;
66603;SDS011;53460;39.612;8.822;2023-08-08T06:30:08;6.75;;;2.05;;
66603;SDS011;53460;39.612;8.822;2023-08-08T06:32:33;6.85;;;1.90;;
66603;SDS011;53460;39.612;8.822;2023-08-08T06:34:59;15.07;;;2.40;;
66603;SDS011;53460;39.612;8.822;2023-08-08T06:37:24;7.32;;;1.92;;
66603;SDS011;53460;39.612;8.822;2023-08-08T06:39:50;10.05;;;2.20;;
66603;SDS011;53460;39.612;8.822;2023-08-08T06:42:16;7.43;;;2.25;;
66603;SDS011;53460;39.612;8.822;2023-08-08T06:44:52;11.02;;;2.22;;
66603;SDS011;53460;39.612;8.822;2023-08-08T06:47:18;7.63;;;1.77;;
66603;SDS011;53460;39.612;8.822;2023-08-08T06:49:43;8.05;;;2.20;;
66603;SDS011;53460;39.612;8.822;2023-08-08T06:52:09;21.02;;;2.72;;
66603;SDS011;53460;39.612;8.822;2023-08-08T06:54:35;7.65;;;1.90;;
66603;SDS011;53460;39.612;8.822;2023-08-08T06:57:00;7.60;;;2.10;;
66603;SDS011;53460;39.612;8.822;2023-08-08T06:59:27;5.97;;;1.92;;
66603;SDS011;53460;39.612;8.822;2023-08-08T07:01:52;11.55;;;2.20;;
66603;SDS011;53460;39.612;8.822;2023-08-08T07:04:18;9.15;;;1.98;;
66603;SDS011;53460;39.612;8.822;2023-08-08T07:06:43;10.25;;;2.30;;
66603;SDS011;53460;39.612;8.822;2023-08-08T07:09:10;7.95;;;2.30;;
66603;SDS011;53460;39.612;8.822;2023-08-08T07:11:36;11.95;;;2.95;;
66603;SDS011;53460;39.612;8.822;2023-08-08T07:14:01;11.27;;;2.45;;
66603;SDS011;53460;39.612;8.822;2023-08-08T07:16:27;10.15;;;2.65;;
66603;SDS011;53460;39.612;8.822;2023-08-08T07:18:52;6.53;;;2.10;;
66603;SDS011;53460;39.612;8.822;2023-08-08T07:21:17;8.57;;;2.00;;
66603;SDS011;53460;39.612;8.822;2023-08-08T07:23:43;11.27;;;2.55;;
66603;SDS011;53460;39.612;8.822;2023-08-08T07:26:09;7.70;;;2.10;;
66603;SDS011;53460;39.612;8.822;2023-08-08T07:28:35;5.43;;;1.85;;
66603;SDS011;53460;39.612;8.822;2023-08-08T07:31:01;14.52;;;2.38;;
66603;SDS011;53460;39.612;8.822;2023-08-08T07:33:26;10.10;;;2.30;;
66603;SDS011;53460;39.612;8.822;2023-08-08T07:35:52;4.40;;;1.90;;
66603;SDS011;53460;39.612;8.822;2023-08-08T07:38:17;4.53;;;1.60;;
66603;SDS011;53460;39.612;8.822;2023-08-08T07:40:43;6.65;;;1.95;;
66603;SDS011;53460;39.612;8.822;2023-08-08T07:43:08;6.43;;;1.67;;
66603;SDS011;53460;39.612;8.822;2023-08-08T07:45:34;6.57;;;2.00;;
66603;SDS011;53460;39.612;8.822;2023-08-08T07:47:59;9.18;;;2.15;;
66603;SDS011;53460;39.612;8.822;2023-08-08T07:50:25;14.38;;;2.78;;
66603;SDS011;53460;39.612;8.822;2023-08-08T07:52:50;8.00;;;1.90;;
66603;SDS011;53460;39.612;8.822;2023-08-08T07:55:16;5.90;;;1.75;;
66603;SDS011;53460;39.612;8.822;2023-08-08T07:57:41;6.38;;;2.15;;
66603;SDS011;53460;39.612;8.822;2023-08-08T08:00:07;7.03;;;2.00;;
66603;SDS011;53460;39.612;8.822;2023-08-08T08:02:44;8.43;;;2.20;;
66603;SDS011;53460;39.612;8.822;2023-08-08T08:05:10;9.35;;;1.92;;
66603;SDS011;53460;39.612;8.822;2023-08-08T08:07:35;5.40;;;1.60;;
66603;SDS011;53460;39.612;8.822;2023-08-08T08:10:02;8.18;;;2.22;;
66603;SDS011;53460;39.612;8.822;2023-08-08T08:12:28;5.95;;;1.80;;
66603;SDS011;53460;39.612;8.822;2023-08-08T08:14:54;7.78;;;1.77;;
66603;SDS011;53460;39.612;8.822;2023-08-08T08:17:19;11.70;;;1.85;;
66603;SDS011;53460;39.612;8.822;2023-08-08T08:19:45;3.97;;;1.80;;
66603;SDS011;53460;39.612;8.822;2023-08-08T08:22:10;12.77;;;2.15;;
66603;SDS011;53460;39.612;8.822;2023-08-08T08:24:36;4.20;;;1.90;;
66603;SDS011;53460;39.612;8.822;2023-08-08T08:27:01;6.20;;;1.70;;
66603;SDS011;53460;39.612;8.822;2023-08-08T08:29:27;3.83;;;1.55;;
66603;SDS011;53460;39.612;8.822;2023-08-08T08:31:52;4.28;;;2.17;;
66603;SDS011;53460;39.612;8.822;2023-08-08T08:34:18;4.93;;;1.55;;
66603;SDS011;53460;39.612;8.822;2023-08-08T08:36:43;5.55;;;1.63;;
66603;SDS011;53460;39.612;8.822;2023-08-08T08:39:09;11.77;;;2.05;;
66603;SDS011;53460;39.612;8.822;2023-08-08T08:41:35;6.57;;;1.75;;
66603;SDS011;53460;39.612;8.822;2023-08-08T08:44:01;4.38;;;1.85;;
66603;SDS011;53460;39.612;8.822;2023-08-08T08:46:27;8.15;;;2.22;;
66603;SDS011;53460;39.612;8.822;2023-08-08T08:48:54;6.90;;;1.30;;
66603;SDS011;53460;39.612;8.822;2023-08-08T08:51:21;4.72;;;1.73;;
66603;SDS011;53460;39.612;8.822;2023-08-08T08:53:47;9.45;;;2.40;;
66603;SDS011;53460;39.612;8.822;2023-08-08T08:56:13;3.08;;;1.45;;
66603;SDS011;53460;39.612;8.822;2023-08-08T08:58:39;6.95;;;1.50;;
66603;SDS011;53460;39.612;8.822;2023-08-08T09:01:05;5.65;;;1.45;;
66603;SDS011;53460;39.612;8.822;2023-08-08T09:03:31;8.68;;;1.58;;
66603;SDS011;53460;39.612;8.822;2023-08-08T09:05:56;3.05;;;1.38;;
66603;SDS011;53460;39.612;8.822;2023-08-08T09:08:23;4.53;;;1.10;;
66603;SDS011;53460;39.612;8.822;2023-08-08T09:10:48;5.05;;;1.40;;
66603;SDS011;53460;39.612;8.822;2023-08-08T09:13:16;5.63;;;1.48;;
66603;SDS011;53460;39.612;8.822;2023-08-08T09:15:41;5.78;;;1.88;;
66603;SDS011;53460;39.612;8.822;2023-08-08T09:18:07;4.43;;;1.65;;
66603;SDS011;53460;39.612;8.822;2023-08-08T09:20:33;6.32;;;1.65;;
66603;SDS011;53460;39.612;8.822;2023-08-08T09:22:58;6.22;;;1.90;;
66603;SDS011;53460;39.612;8.822;2023-08-08T09:25:24;2.92;;;1.30;;
66603;SDS011;53460;39.612;8.822;2023-08-08T09:27:51;3.78;;;1.60;;
66603;SDS011;53460;39.612;8.822;2023-08-08T09:30:18;3.38;;;1.50;;
66603;SDS011;53460;39.612;8.822;2023-08-08T09:32:44;4.63;;;1.52;;
66603;SDS011;53460;39.612;8.822;2023-08-08T09:35:10;4.47;;;1.52;;
66603;SDS011;53460;39.612;8.822;2023-08-08T09:37:36;4.47;;;1.70;;
66603;SDS011;53460;39.612;8.822;2023-08-08T09:40:02;3.67;;;1.45;;
66603;SDS011;53460;39.612;8.822;2023-08-08T09:42:30;4.95;;;1.60;;
66603;SDS011;53460;39.612;8.822;2023-08-08T09:44:56;4.80;;;1.20;;
66603;SDS011;53460;39.612;8.822;2023-08-08T09:47:22;4.28;;;1.40;;
66603;SDS011;53460;39.612;8.822;2023-08-08T09:49:47;7.38;;;1.40;;
66603;SDS011;53460;39.612;8.822;2023-08-08T09:52:13;6.07;;;1.73;;
66603;SDS011;53460;39.612;8.822;2023-08-08T09:54:39;3.60;;;1.52;;
66603;SDS011;53460;39.612;8.822;2023-08-08T09:57:06;3.90;;;1.58;;
66603;SDS011;53460;39.612;8.822;2023-08-08T09:59:32;8.00;;;1.48;;
66603;SDS011;53460;39.612;8.822;2023-08-08T10:01:57;5.38;;;1.50;;
66603;SDS011;53460;39.612;8.822;2023-08-08T10:04:23;1.85;;;1.08;;
66603;SDS011;53460;39.612;8.822;2023-08-08T10:06:49;4.03;;;1.45;;
66603;SDS011;53460;39.612;8.822;2023-08-08T10:09:14;6.07;;;1.73;;
66603;SDS011;53460;39.612;8.822;2023-08-08T10:11:40;4.80;;;1.58;;
66603;SDS011;53460;39.612;8.822;2023-08-08T10:14:08;4.05;;;1.90;;
66603;SDS011;53460;39.612;8.822;2023-08-08T10:16:36;6.40;;;1.83;;
66603;SDS011;53460;39.612;8.822;2023-08-08T10:19:03;4.80;;;1.40;;
66603;SDS011;53460;39.612;8.822;2023-08-08T10:21:33;5.80;;;1.58;;
66603;SDS011;53460;39.612;8.822;2023-08-08T10:24:02;4.15;;;2.00;;
66603;SDS011;53460;39.612;8.822;2023-08-08T10:26:29;4.75;;;1.80;;
66603;SDS011;53460;39.612;8.822;2023-08-08T10:28:58;4.47;;;1.45;;
66603;SDS011;53460;39.612;8.822;2023-08-08T10:31:24;2.38;;;1.50;;
66603;SDS011;53460;39.612;8.822;2023-08-08T10:33:49;4.95;;;1.67;;
66603;SDS011;53460;39.612;8.822;2023-08-08T10:36:15;4.20;;;1.33;;
66603;SDS011;53460;39.612;8.822;2023-08-08T10:41:09;2.53;;;1.40;;
66603;SDS011;53460;39.612;8.822;2023-08-08T10:43:34;7.68;;;1.70;;
66603;SDS011;53460;39.612;8.822;2023-08-08T10:46:00;4.95;;;1.88;;
66603;SDS011;53460;39.612;8.822;2023-08-08T10:48:26;4.85;;;1.67;;
66603;SDS011;53460;39.612;8.822;2023-08-08T10:50:53;3.85;;;1.40;;
66603;SDS011;53460;39.612;8.822;2023-08-08T10:53:22;5.75;;;1.52;;
66603;SDS011;53460;39.612;8.822;2023-08-08T10:55:47;5.35;;;1.75;;
66603;SDS011;53460;39.612;8.822;2023-08-08T10:58:21;4.47;;;1.63;;
66603;SDS011;53460;39.612;8.822;2023-08-08T11:00:47;6.97;;;1.60;;
66603;SDS011;53460;39.612;8.822;2023-08-08T11:03:13;4.20;;;1.55;;
66603;SDS011;53460;39.612;8.822;2023-08-08T11:05:39;3.88;;;1.80;;
66603;SDS011;53460;39.612;8.822;2023-08-08T11:08:09;6.50;;;1.63;;
66603;SDS011;53460;39.612;8.822;2023-08-08T11:10:35;3.70;;;1.70;;
66603;SDS011;53460;39.612;8.822;2023-08-08T11:13:03;3.15;;;1.50;;
66603;SDS011;53460;39.612;8.822;2023-08-08T11:15:29;5.70;;;1.38;;
66603;SDS011;53460;39.612;8.822;2023-08-08T11:17:54;35.67;;;3.63;;
66603;SDS011;53460;39.612;8.822;2023-08-08T11:20:21;7.97;;;1.45;;
66603;SDS011;53460;39.612;8.822;2023-08-08T11:22:50;5.15;;;1.30;;
66603;SDS011;53460;39.612;8.822;2023-08-08T11:25:16;4.70;;;1.77;;
66603;SDS011;53460;39.612;8.822;2023-08-08T11:27:47;9.50;;;1.52;;
66603;SDS011;53460;39.612;8.822;2023-08-08T11:30:13;5.95;;;1.40;;
66603;SDS011;53460;39.612;8.822;2023-08-08T11:32:38;5.18;;;1.65;;
66603;SDS011;53460;39.612;8.822;2023-08-08T11:35:04;3.65;;;1.40;;
66603;SDS011;53460;39.612;8.822;2023-08-08T11:37:29;6.38;;;2.10;;
66603;SDS011;53460;39.612;8.822;2023-08-08T11:39:55;5.32;;;2.00;;
66603;SDS011;53460;39.612;8.822;2023-08-08T11:42:21;6.22;;;1.80;;
66603;SDS011;53460;39.612;8.822;2023-08-08T11:44:46;4.78;;;1.80;;
66603;SDS011;53460;39.612;8.822;2023-08-08T11:47:12;4.13;;;1.70;;
66603;SDS011;53460;39.612;8.822;2023-08-08T11:49:41;4.55;;;1.52;;
66603;SDS011;53460;39.612;8.822;2023-08-08T11:52:09;2.83;;;1.40;;
66603;SDS011;53460;39.612;8.822;2023-08-08T11:54:36;3.33;;;1.40;;
66603;SDS011;53460;39.612;8.822;2023-08-08T11:57:02;4.60;;;1.60;;
66603;SDS011;53460;39.612;8.822;2023-08-08T11:59:28;5.50;;;1.77;;
66603;SDS011;53460;39.612;8.822;2023-08-08T12:01:54;5.28;;;1.75;;
66603;SDS011;53460;39.612;8.822;2023-08-08T12:04:20;3.22;;;1.67;;
66603;SDS011;53460;39.612;8.822;2023-08-08T12:06:46;4.47;;;1.63;;
66603;SDS011;53460;39.612;8.822;2023-08-08T12:09:12;3.58;;;1.75;;
66603;SDS011;53460;39.612;8.822;2023-08-08T12:11:40;2.85;;;1.90;;
66603;SDS011;53460;39.612;8.822;2023-08-08T12:14:09;5.07;;;1.95;;
66603;SDS011;53460;39.612;8.822;2023-08-08T12:16:40;2.80;;;1.60;;
66603;SDS011;53460;39.612;8.822;2023-08-08T12:19:08;1.83;;;1.33;;
66603;SDS011;53460;39.612;8.822;2023-08-08T12:21:37;3.30;;;1.70;;
66603;SDS011;53460;39.612;8.822;2023-08-08T12:24:03;3.17;;;1.70;;
66603;SDS011;53460;39.612;8.822;2023-08-08T12:26:28;2.58;;;1.30;;
66603;SDS011;53460;39.612;8.822;2023-08-08T12:28:54;5.55;;;1.55;;
66603;SDS011;53460;39.612;8.822;2023-08-08T12:31:20;1.75;;;1.45;;
66603;SDS011;53460;39.612;8.822;2023-08-08T12:33:45;5.78;;;1.60;;
66603;SDS011;53460;39.612;8.822;2023-08-08T12:36:11;2.38;;;1.58;;
66603;SDS011;53460;39.612;8.822;2023-08-08T12:38:37;4.72;;;1.60;;
66603;SDS011;53460;39.612;8.822;2023-08-08T12:41:02;5.80;;;1.67;;
66603;SDS011;53460;39.612;8.822;2023-08-08T12:43:28;4.20;;;1.95;;
66603;SDS011;53460;39.612;8.822;2023-08-08T12:45:53;3.63;;;1.73;;
66603;SDS011;53460;39.612;8.822;2023-08-08T12:48:19;2.90;;;1.48;;
66603;SDS011;53460;39.612;8.822;2023-08-08T12:50:44;4.35;;;1.52;;
66603;SDS011;53460;39.612;8.822;2023-08-08T12:53:10;3.88;;;1.52;;
66603;SDS011;53460;39.612;8.822;2023-08-08T12:55:35;3.45;;;1.60;;
66603;SDS011;53460;39.612;8.822;2023-08-08T12:58:02;3.33;;;1.98;;
66603;SDS011;53460;39.612;8.822;2023-08-08T13:00:28;2.30;;;1.38;;
66603;SDS011;53460;39.612;8.822;2023-08-08T13:02:54;5.07;;;1.70;;
66603;SDS011;53460;39.612;8.822;2023-08-08T13:05:19;3.50;;;1.40;;
66603;SDS011;53460;39.612;8.822;2023-08-08T13:07:45;3.92;;;1.50;;
66603;SDS011;53460;39.612;8.822;2023-08-08T13:10:10;5.47;;;1.42;;
66603;SDS011;53460;39.612;8.822;2023-08-08T13:12:36;5.13;;;1.35;;
66603;SDS011;53460;39.612;8.822;2023-08-08T13:15:01;3.67;;;1.20;;
66603;SDS011;53460;39.612;8.822;2023-08-08T13:17:27;5.72;;;1.35;;
66603;SDS011;53460;39.612;8.822;2023-08-08T13:19:53;2.75;;;1.40;;
66603;SDS011;53460;39.612;8.822;2023-08-08T13:22:18;3.13;;;1.42;;
66603;SDS011;53460;39.612;8.822;2023-08-08T13:24:43;4.10;;;1.58;;
66603;SDS011;53460;39.612;8.822;2023-08-08T13:27:09;5.60;;;1.48;;
66603;SDS011;53460;39.612;8.822;2023-08-08T13:29:34;2.28;;;1.30;;
66603;SDS011;53460;39.612;8.822;2023-08-08T13:32:00;5.25;;;1.38;;
66603;SDS011;53460;39.612;8.822;2023-08-08T13:34:25;4.60;;;1.65;;
66603;SDS011;53460;39.612;8.822;2023-08-08T13:36:51;2.10;;;1.00;;
66603;SDS011;53460;39.612;8.822;2023-08-08T13:39:16;4.05;;;1.88;;
66603;SDS011;53460;39.612;8.822;2023-08-08T13:41:42;4.18;;;1.35;;
66603;SDS011;53460;39.612;8.822;2023-08-08T13:44:07;3.20;;;1.30;;
66603;SDS011;53460;39.612;8.822;2023-08-08T13:46:32;3.33;;;1.30;;
66603;SDS011;53460;39.612;8.822;2023-08-08T13:48:58;2.97;;;1.33;;
66603;SDS011;53460;39.612;8.822;2023-08-08T13:51:23;2.65;;;1.40;;
66603;SDS011;53460;39.612;8.822;2023-08-08T13:53:49;2.83;;;1.40;;
66603;SDS011;53460;39.612;8.822;2023-08-08T13:56:14;2.60;;;1.50;;
66603;SDS011;53460;39.612;8.822;2023-08-08T13:58:40;1.58;;;1.20;;
66603;SDS011;53460;39.612;8.822;2023-08-08T14:01:05;3.17;;;1.55;;
66603;SDS011;53460;39.612;8.822;2023-08-08T14:03:31;1.60;;;1.02;;
66603;SDS011;53460;39.612;8.822;2023-08-08T14:05:57;7.30;;;1.33;;
66603;SDS011;53460;39.612;8.822;2023-08-08T14:08:23;2.28;;;1.40;;
66603;SDS011;53460;39.612;8.822;2023-08-08T14:10:48;2.03;;;1.20;;
66603;SDS011;53460;39.612;8.822;2023-08-08T14:13:13;5.80;;;1.80;;
66603;SDS011;53460;39.612;8.822;2023-08-08T14:15:39;3.25;;;1.42;;
66603;SDS011;53460;39.612;8.822;2023-08-08T14:18:07;4.25;;;1.42;;
66603;SDS011;53460;39.612;8.822;2023-08-08T14:20:33;5.35;;;1.50;;
66603;SDS011;53460;39.612;8.822;2023-08-08T14:22:58;3.28;;;1.63;;
66603;SDS011;53460;39.612;8.822;2023-08-08T14:25:24;4.90;;;1.50;;
66603;SDS011;53460;39.612;8.822;2023-08-08T14:27:50;3.25;;;1.17;;
66603;SDS011;53460;39.612;8.822;2023-08-08T14:30:16;3.05;;;1.42;;
66603;SDS011;53460;39.612;8.822;2023-08-08T14:32:41;2.35;;;1.35;;
66603;SDS011;53460;39.612;8.822;2023-08-08T14:35:07;4.18;;;1.55;;
66603;SDS011;53460;39.612;8.822;2023-08-08T14:37:34;3.10;;;1.27;;
66603;SDS011;53460;39.612;8.822;2023-08-08T14:40:00;3.55;;;1.52;;